Terminal Aerodrome Forecast
Issued by NWS Melbourne, FL

Current Version | Previous Version | Text Only | Print | Product List | Glossary On
Versions: 1 2 3 4 5 6 7 8 9 10 11 12
629
FTUS42 KMLB 150539
TAFDAB
TAF
KDAB 150539Z 1506/1606 VRB03KT P6SM BKN070 BKN250
     FM151500 23008KT P6SM BKN040 BKN250
     FM160000 29004KT P6SM SCT040 SCT250=

USA.gov is the U.S. government's official web portal to all federal, state and local government web resources and services.